Time;durP1;ratioP1;P1;durP2;ratioP2;P2;SDS_P1;SDS_P2;PMS_P1;PMS_P2;Temp;Humidity;BMP_temperature;BMP_pressure;BME280_temperature;BME280_humidity;BME280_pressure;Samples;Min_cycle;Max_cycle;Signal;HPM_P1;HPM_P2
2023/03/31 00:00:20;;;;;;;14.73;3.40;;;10.60;99.90;;;;;;5012118;28;20080;-66
2023/03/31 00:02:45;;;;;;;22.00;3.63;;;10.60;99.90;;;;;;5012684;28;20049;-66
2023/03/31 00:05:16;;;;;;;17.60;3.60;;;10.60;99.90;;;;;;4998516;28;20042;-66
2023/03/31 00:07:44;;;;;;;22.45;4.40;;;10.50;99.90;;;;;;4991163;28;20380;-66
2023/03/31 00:10:10;;;;;;;25.05;4.20;;;10.50;99.90;;;;;;5012426;28;20041;-66
2023/03/31 00:12:36;;;;;;;17.70;3.33;;;10.40;99.90;;;;;;4996744;28;20456;-67
2023/03/31 00:15:01;;;;;;;15.80;3.63;;;10.20;99.90;;;;;;5005614;28;20049;-66
2023/03/31 00:17:27;;;;;;;15.07;3.97;;;10.20;99.90;;;;;;5011993;28;20037;-67
2023/03/31 00:19:52;;;;;;;20.88;4.07;;;10.20;99.90;;;;;;5012481;28;20046;-66
2023/03/31 00:22:21;;;;;;;16.70;3.42;;;10.20;99.90;;;;;;5000615;28;20117;-67
2023/03/31 00:24:47;;;;;;;20.35;3.58;;;10.20;99.90;;;;;;5010850;28;20397;-66
2023/03/31 00:27:12;;;;;;;19.63;4.28;;;10.20;99.90;;;;;;5011856;28;20041;-66
2023/03/31 00:29:40;;;;;;;14.18;2.95;;;10.20;99.90;;;;;;4997972;28;20042;-67
2023/03/31 00:32:06;;;;;;;19.05;3.83;;;10.20;99.90;;;;;;5009110;28;20080;-66
2023/03/31 00:34:33;;;;;;;15.15;3.50;;;10.20;99.90;;;;;;5012304;28;20112;-66
2023/03/31 00:37:01;;;;;;;19.92;3.65;;;10.10;99.90;;;;;;5011193;28;20034;-66
2023/03/31 00:39:30;;;;;;;14.48;3.38;;;10.10;99.90;;;;;;5001839;28;20030;-67
2023/03/31 00:41:57;;;;;;;25.45;4.35;;;10.10;99.90;;;;;;5002513;28;20511;-67
2023/03/31 00:44:28;;;;;;;16.58;4.20;;;10.00;99.90;;;;;;5012040;28;20124;-67
2023/03/31 00:47:01;;;;;;;20.10;3.58;;;10.00;99.90;;;;;;4997180;28;20042;-67
2023/03/31 00:49:35;;;;;;;19.52;3.92;;;9.90;99.90;;;;;;5007991;28;20406;-66
2023/03/31 00:52:12;;;;;;;16.33;3.28;;;9.80;99.90;;;;;;5011730;28;20041;-66
2023/03/31 00:54:38;;;;;;;16.48;3.75;;;9.70;99.90;;;;;;5008862;28;20042;-66
2023/03/31 00:57:05;;;;;;;24.23;3.92;;;9.70;99.90;;;;;;4983393;28;20078;-66
2023/03/31 00:59:37;;;;;;;15.73;3.50;;;9.70;99.90;;;;;;4993676;28;20096;-66
2023/03/31 01:02:03;;;;;;;;;;;9.60;99.90;;;;;;5012444;28;20042;-66
2023/03/31 01:04:49;;;;;;;17.27;3.78;;;9.60;99.90;;;;;;5000396;28;19921;-67
2023/03/31 01:07:24;;;;;;;21.85;4.55;;;9.60;99.90;;;;;;5010507;28;20145;-66
2023/03/31 01:09:53;;;;;;;22.67;4.57;;;9.50;99.90;;;;;;5007516;28;20030;-66
2023/03/31 01:12:21;;;;;;;16.88;4.32;;;9.50;99.90;;;;;;5003384;28;20510;-66
2023/03/31 01:14:49;;;;;;;15.25;4.50;;;9.50;99.90;;;;;;5011570;28;20078;-66
2023/03/31 01:17:17;;;;;;;17.30;4.80;;;9.60;99.90;;;;;;5046993;22;20042;-65
2023/03/31 01:20:17;;;;;;;19.73;5.45;;;9.60;99.90;;;;;;4976139;28;20412;-65
2023/03/31 01:23:04;;;;;;;18.52;5.03;;;9.80;99.90;;;;;;4962532;28;20050;-66
2023/03/31 01:26:08;;;;;;;18.42;5.55;;;9.90;99.90;;;;;;4976752;28;20369;-65
2023/03/31 01:28:51;;;;;;;17.83;5.55;;;9.90;99.90;;;;;;4984997;28;20057;-65
2023/03/31 01:31:54;;;;;;;20.33;5.75;;;9.80;99.90;;;;;;4991998;28;20631;-65
2023/03/31 01:34:49;;;;;;;18.17;5.28;;;9.80;99.90;;;;;;4967152;28;20038;-65
2023/03/31 01:37:52;;;;;;;16.73;4.97;;;9.90;99.90;;;;;;4988036;28;20088;-65
2023/03/31 01:40:29;;;;;;;20.45;6.22;;;9.90;99.90;;;;;;4972408;28;20042;-65
2023/03/31 01:43:18;;;;;;;18.48;5.93;;;9.90;99.90;;;;;;4980644;28;20500;-65
2023/03/31 01:46:01;;;;;;;18.23;5.43;;;9.90;99.90;;;;;;4997652;28;20089;-65
2023/03/31 01:48:50;;;;;;;15.77;5.22;;;9.90;99.90;;;;;;4991572;28;20531;-66
2023/03/31 01:51:26;;;;;;;16.48;5.80;;;10.00;99.90;;;;;;4986452;28;20508;-65
2023/03/31 01:54:07;;;;;;;22.58;5.80;;;9.90;99.90;;;;;;4970201;28;20076;-65
2023/03/31 01:56:45;;;;;;;18.90;5.82;;;9.90;99.90;;;;;;4991812;28;20038;-65
2023/03/31 01:59:15;;;;;;;15.10;4.45;;;10.00;99.90;;;;;;4985736;28;20117;-65
2023/03/31 02:01:54;;;;;;;15.02;5.25;;;9.90;99.90;;;;;;4984346;28;20039;-65
2023/03/31 02:04:28;;;;;;;15.38;4.90;;;10.00;99.90;;;;;;4984785;28;20046;-65
2023/03/31 02:06:59;;;;;;;16.50;4.78;;;10.00;99.90;;;;;;4992235;28;20048;-65
2023/03/31 02:09:28;;;;;;;;;;;9.90;99.90;;;;;;4961679;28;20481;-65
2023/03/31 02:11:55;;;;;;;16.42;4.65;;;9.90;99.90;;;;;;4965162;28;19960;-65
2023/03/31 02:14:26;;;;;;;16.83;5.55;;;9.90;99.90;;;;;;4991514;28;20572;-65
2023/03/31 02:16:57;;;;;;;18.93;5.13;;;10.00;99.90;;;;;;4977466;28;20038;-65
2023/03/31 02:19:26;;;;;;;9.07;3.95;;;9.90;99.90;;;;;;4983846;28;20274;-65
2023/03/31 02:21:53;;;;;;;15.65;4.63;;;10.00;99.90;;;;;;4990573;28;20042;-66
2023/03/31 02:24:23;;;;;;;19.55;5.22;;;10.00;99.90;;;;;;4983997;28;20046;-65
2023/03/31 02:27:03;;;;;;;12.25;5.38;;;10.00;99.90;;;;;;4990112;28;20050;-65
2023/03/31 02:29:29;;;;;;;16.35;4.88;;;10.00;99.90;;;;;;4953866;28;20178;-65
2023/03/31 02:32:19;;;;;;;18.15;5.00;;;10.00;99.90;;;;;;4973993;28;20520;-65
2023/03/31 02:34:44;;;;;;;18.23;5.10;;;10.10;99.90;;;;;;4985838;28;20045;-65
2023/03/31 02:37:11;;;;;;;16.52;4.90;;;10.10;99.90;;;;;;4972697;28;20038;-65
2023/03/31 02:39:40;;;;;;;12.68;4.15;;;10.10;99.90;;;;;;4990698;28;20058;-65
2023/03/31 02:42:08;;;;;;;14.23;4.57;;;10.20;99.90;;;;;;4978925;28;20661;-65
2023/03/31 02:44:37;;;;;;;15.10;4.35;;;10.20;99.90;;;;;;4985237;28;20041;-65
2023/03/31 02:47:06;;;;;;;16.02;4.32;;;10.30;99.90;;;;;;4990114;28;20046;-65
2023/03/31 02:49:33;;;;;;;13.85;5.30;;;10.30;99.90;;;;;;4982032;28;20034;-65
2023/03/31 02:52:16;;;;;;;13.98;4.30;;;10.20;99.90;;;;;;4984821;28;20038;-65
2023/03/31 02:55:09;;;;;;;13.75;4.03;;;10.30;99.90;;;;;;4990861;28;20043;-65
2023/03/31 02:58:11;;;;;;;13.02;4.18;;;10.30;99.90;;;;;;4987388;28;20497;-65
2023/03/31 03:01:08;;;;;;;13.25;4.90;;;10.20;99.90;;;;;;4965089;28;20045;-65
2023/03/31 03:03:47;;;;;;;11.60;4.20;;;10.20;99.90;;;;;;4988342;28;20128;-65
2023/03/31 03:06:22;;;;;;;12.18;4.13;;;10.20;99.90;;;;;;4983674;28;20054;-65
2023/03/31 03:09:21;;;;;;;11.25;4.20;;;10.30;99.90;;;;;;4983892;28;20038;-65
2023/03/31 03:12:12;;;;;;;13.23;4.30;;;10.30;99.90;;;;;;4990242;28;20067;-66
2023/03/31 03:14:41;;;;;;;12.67;4.13;;;10.30;99.90;;;;;;4983813;28;20049;-66
2023/03/31 03:17:19;;;;;;;13.10;4.60;;;10.30;99.90;;;;;;4991324;28;20180;-66
2023/03/31 03:19:54;;;;;;;10.80;4.38;;;10.30;99.90;;;;;;4994281;28;20519;-65
2023/03/31 03:22:20;;;;;;;10.68;4.40;;;10.30;99.90;;;;;;4985962;28;20034;-65
2023/03/31 03:24:45;;;;;;;12.70;4.45;;;10.30;99.90;;;;;;4994320;28;20030;-65
2023/03/31 03:27:11;;;;;;;13.10;4.63;;;10.30;99.90;;;;;;4994838;28;20065;-65
2023/03/31 03:29:36;;;;;;;10.43;4.72;;;10.30;99.90;;;;;;4995686;28;20039;-65
2023/03/31 03:32:02;;;;;;;11.32;4.00;;;10.30;99.90;;;;;;4983963;28;20035;-65
2023/03/31 03:34:27;;;;;;;14.35;4.90;;;10.30;99.90;;;;;;4994113;28;20097;-65
2023/03/31 03:36:53;;;;;;;15.80;4.72;;;10.30;99.90;;;;;;4987024;28;20400;-66
2023/03/31 03:39:18;;;;;;;11.65;4.90;;;10.30;99.90;;;;;;4982048;28;20050;-66
2023/03/31 03:41:45;;;;;;;11.10;5.00;;;10.30;99.90;;;;;;4990428;28;20034;-65
2023/03/31 03:44:11;;;;;;;12.15;4.53;;;10.30;99.90;;;;;;4994585;28;20185;-65
2023/03/31 03:46:36;;;;;;;14.70;5.05;;;10.30;99.90;;;;;;4976806;28;20557;-65
2023/03/31 03:49:02;;;;;;;12.32;5.18;;;10.30;99.90;;;;;;4982609;28;20057;-65
2023/03/31 03:51:27;;;;;;;11.60;4.38;;;10.30;99.90;;;;;;4987548;28;20396;-65
2023/03/31 03:53:53;;;;;;;16.10;5.25;;;10.30;99.90;;;;;;4982180;28;20047;-66
2023/03/31 03:56:19;;;;;;;12.15;5.65;;;10.20;99.90;;;;;;4983817;28;20049;-65
2023/03/31 03:58:44;;;;;;;11.90;4.45;;;10.20;99.90;;;;;;4989170;28;20034;-65
2023/03/31 04:01:10;;;;;;;11.48;5.22;;;10.20;99.90;;;;;;4993195;28;20034;-66
2023/03/31 04:03:35;;;;;;;12.50;4.90;;;10.20;99.90;;;;;;4969992;28;20051;-65
2023/03/31 04:06:01;;;;;;;10.73;4.55;;;10.20;99.90;;;;;;4961433;28;20481;-65
2023/03/31 04:08:26;;;;;;;11.63;4.40;;;10.10;99.90;;;;;;4994037;28;20544;-65
2023/03/31 04:10:52;;;;;;;15.25;5.03;;;10.10;99.90;;;;;;4978578;28;20046;-64
2023/03/31 04:13:18;;;;;;;11.65;4.70;;;10.10;99.90;;;;;;4986501;28;20066;-66
2023/03/31 04:15:44;;;;;;;11.18;4.38;;;10.10;99.90;;;;;;4987652;28;20110;-66
2023/03/31 04:18:17;;;;;;;9.43;4.15;;;10.10;99.90;;;;;;4975308;28;20122;-66
2023/03/31 04:20:43;;;;;;;11.05;4.00;;;10.10;99.90;;;;;;4994397;28;20492;-65
2023/03/31 04:23:09;;;;;;;10.60;4.18;;;10.20;99.90;;;;;;4988667;28;20089;-65
2023/03/31 04:25:37;;;;;;;14.18;4.20;;;10.10;99.90;;;;;;4976415;28;20044;-65
2023/03/31 04:28:05;;;;;;;10.63;4.53;;;10.20;99.90;;;;;;4994796;28;20050;-65
2023/03/31 04:30:31;;;;;;;12.27;4.28;;;10.20;99.90;;;;;;4972141;28;20413;-66
2023/03/31 04:33:01;;;;;;;9.82;4.35;;;10.20;99.90;;;;;;4992622;28;20042;-66
2023/03/31 04:35:48;;;;;;;12.65;4.35;;;10.20;99.90;;;;;;4974881;28;20046;-66
2023/03/31 04:38:17;;;;;;;9.98;4.13;;;10.20;99.90;;;;;;4985806;28;20057;-66
2023/03/31 04:40:44;;;;;;;9.73;4.30;;;10.20;99.90;;;;;;4975917;28;20045;-66
2023/03/31 04:43:10;;;;;;;21.00;4.97;;;10.20;99.90;;;;;;4986743;28;20478;-66
2023/03/31 04:45:35;;;;;;;12.13;4.47;;;10.20;99.90;;;;;;4988735;28;20093;-64
2023/03/31 04:48:01;;;;;;;12.18;4.18;;;10.30;99.90;;;;;;4974228;28;20054;-66
2023/03/31 04:50:27;;;;;;;14.40;4.50;;;10.30;99.90;;;;;;4992703;28;20046;-66
2023/03/31 04:52:52;;;;;;;13.27;4.50;;;10.30;99.90;;;;;;4993171;28;20039;-65
2023/03/31 04:55:18;;;;;;;12.65;4.63;;;10.30;99.90;;;;;;4985154;28;20119;-65
2023/03/31 04:57:44;;;;;;;11.75;4.80;;;10.30;99.90;;;;;;4975722;28;20038;-66
2023/03/31 05:00:10;;;;;;;12.43;4.70;;;10.30;99.90;;;;;;4988831;28;20085;-66
2023/03/31 05:02:35;;;;;;;8.65;4.88;;;10.30;99.90;;;;;;4993161;28;20582;-65
2023/03/31 05:05:01;;;;;;;8.60;4.40;;;10.30;99.90;;;;;;4976334;28;20097;-65
2023/03/31 05:07:26;;;;;;;11.95;4.82;;;10.30;99.90;;;;;;5001575;28;20500;-65
2023/03/31 05:09:52;;;;;;;10.90;4.63;;;10.30;99.90;;;;;;4993286;28;20038;-65
2023/03/31 05:12:17;;;;;;;13.48;5.05;;;10.30;99.90;;;;;;4991987;28;20428;-65
2023/03/31 05:14:43;;;;;;;10.40;4.47;;;10.30;99.90;;;;;;4980780;28;20045;-65
2023/03/31 05:17:09;;;;;;;19.63;4.40;;;10.40;99.90;;;;;;4983223;28;20351;-67
2023/03/31 05:19:34;;;;;;;10.50;4.45;;;10.40;99.90;;;;;;4974849;28;20548;-65
2023/03/31 05:22:00;;;;;;;11.90;4.63;;;10.40;99.90;;;;;;4967713;28;20047;-65
2023/03/31 05:24:27;;;;;;;9.73;4.80;;;10.40;99.90;;;;;;4990759;28;20046;-64
2023/03/31 05:26:53;;;;;;;13.15;4.80;;;10.40;99.90;;;;;;4970562;28;20516;-65
2023/03/31 05:29:19;;;;;;;11.50;4.70;;;10.30;99.90;;;;;;5002030;28;20042;-64
2023/03/31 05:31:45;;;;;;;11.32;4.25;;;10.30;99.90;;;;;;4984317;28;20092;-64
2023/03/31 05:34:11;;;;;;;11.15;4.00;;;10.30;99.90;;;;;;4989810;28;20054;-65
2023/03/31 05:36:36;;;;;;;12.32;3.65;;;10.30;99.90;;;;;;4985763;28;20121;-65
2023/03/31 05:39:06;;;;;;;13.35;4.20;;;10.30;99.90;;;;;;4962013;28;20034;-64
2023/03/31 05:41:33;;;;;;;9.68;4.28;;;10.30;99.90;;;;;;4987641;28;20043;-65
2023/03/31 05:43:58;;;;;;;12.07;4.72;;;10.30;99.90;;;;;;4991639;28;20039;-65
2023/03/31 05:46:25;;;;;;;10.75;4.93;;;10.30;99.90;;;;;;4974665;28;20061;-65
2023/03/31 05:48:51;;;;;;;10.27;4.88;;;10.30;99.90;;;;;;4980899;28;20070;-64
2023/03/31 05:51:16;;;;;;;14.52;5.10;;;10.30;99.90;;;;;;4991591;28;20069;-64
2023/03/31 05:53:43;;;;;;;12.38;5.18;;;10.30;99.90;;;;;;4992043;28;20493;-65
2023/03/31 05:56:08;;;;;;;15.85;5.70;;;10.30;99.90;;;;;;4985643;28;20034;-64
2023/03/31 05:58:35;;;;;;;12.55;5.20;;;10.30;99.90;;;;;;4990739;28;20441;-65
2023/03/31 06:01:06;;;;;;;11.93;5.05;;;10.30;99.90;;;;;;4992039;28;20389;-65
2023/03/31 06:03:37;;;;;;;17.38;5.05;;;10.30;99.90;;;;;;4982167;28;20100;-65
2023/03/31 06:06:07;;;;;;;13.30;4.88;;;10.40;99.90;;;;;;4981285;28;20046;-65
2023/03/31 06:08:33;;;;;;;10.23;4.78;;;10.40;99.90;;;;;;4990655;28;20132;-64
2023/03/31 06:10:59;;;;;;;10.05;4.70;;;10.40;99.90;;;;;;4980234;28;20475;-65
2023/03/31 06:13:25;;;;;;;14.57;4.65;;;10.40;99.90;;;;;;4969429;28;20134;-65
2023/03/31 06:15:58;;;;;;;14.30;4.43;;;10.50;99.90;;;;;;4988301;28;20117;-65
2023/03/31 06:18:25;;;;;;;9.38;4.15;;;10.40;99.90;;;;;;4972243;28;20441;-65
2023/03/31 06:20:51;;;;;;;12.57;4.60;;;10.40;99.90;;;;;;4972952;28;20092;-65
2023/03/31 06:23:16;;;;;;;15.25;4.57;;;10.40;99.90;;;;;;4990076;28;20050;-65
2023/03/31 06:25:42;;;;;;;16.55;4.47;;;10.40;99.90;;;;;;4991326;28;20567;-65
2023/03/31 06:28:08;;;;;;;11.18;4.10;;;10.40;99.90;;;;;;4985893;28;21002;-65
2023/03/31 06:30:34;;;;;;;13.38;4.28;;;10.40;99.90;;;;;;4958049;28;20045;-65
2023/03/31 06:33:00;;;;;;;16.75;4.57;;;10.40;99.90;;;;;;4971425;28;20476;-65
2023/03/31 06:35:25;;;;;;;12.68;4.22;;;10.40;99.90;;;;;;4992680;28;20030;-65
2023/03/31 06:37:51;;;;;;;11.82;4.70;;;10.40;99.90;;;;;;4986930;28;20042;-65
2023/03/31 06:40:17;;;;;;;10.23;3.92;;;10.40;99.90;;;;;;4985507;28;20027;-65
2023/03/31 06:42:42;;;;;;;9.45;4.05;;;10.40;99.90;;;;;;4989058;28;20409;-64
2023/03/31 06:45:09;;;;;;;17.45;4.90;;;10.50;99.90;;;;;;4989128;28;20039;-65
2023/03/31 06:47:36;;;;;;;12.40;3.95;;;10.50;99.90;;;;;;4988485;28;20046;-65
2023/03/31 06:50:04;;;;;;;12.38;3.65;;;10.60;99.90;;;;;;4995253;28;20520;-64
2023/03/31 06:52:30;;;;;;;11.70;3.85;;;10.60;99.90;;;;;;4979711;28;20049;-64
2023/03/31 06:54:56;;;;;;;11.13;3.95;;;10.60;99.90;;;;;;4986003;28;20043;-64
2023/03/31 06:57:21;;;;;;;11.73;4.35;;;10.70;99.90;;;;;;5007607;28;20030;-64
2023/03/31 06:59:47;;;;;;;10.60;3.88;;;10.80;99.90;;;;;;5004225;28;20070;-64
2023/03/31 07:02:12;;;;;;;9.60;4.13;;;10.80;99.90;;;;;;4989572;28;20113;-64
2023/03/31 07:04:38;;;;;;;8.82;3.63;;;10.80;99.90;;;;;;4988414;28;20066;-64
2023/03/31 07:07:03;;;;;;;12.38;4.20;;;10.90;99.90;;;;;;4978056;28;20133;-64
2023/03/31 07:09:29;;;;;;;11.38;3.58;;;10.90;99.90;;;;;;4995823;28;20459;-64
2023/03/31 07:11:55;;;;;;;12.35;3.75;;;11.00;99.90;;;;;;4987195;28;20043;-63
2023/03/31 07:14:21;;;;;;;14.77;3.72;;;11.10;99.90;;;;;;4988201;28;20045;-64
2023/03/31 07:16:47;;;;;;;10.02;3.42;;;11.10;99.90;;;;;;4991705;28;20078;-63
2023/03/31 07:19:14;;;;;;;8.75;3.22;;;11.20;99.90;;;;;;5020009;23;20080;-64
2023/03/31 07:21:40;;;;;;;11.45;3.38;;;11.20;99.90;;;;;;5027094;28;20107;-64
2023/03/31 07:24:05;;;;;;;9.82;3.47;;;11.30;99.90;;;;;;5026404;28;20491;-65
2023/03/31 07:26:31;;;;;;;10.10;3.45;;;11.30;99.90;;;;;;5018151;28;20108;-64
2023/03/31 07:28:58;;;;;;;10.50;3.50;;;11.30;99.90;;;;;;5022001;28;20038;-64
2023/03/31 07:31:24;;;;;;;11.07;4.00;;;11.30;99.90;;;;;;5009413;28;20091;-64
2023/03/31 07:33:49;;;;;;;9.65;3.55;;;11.30;99.90;;;;;;5021315;28;20069;-64
2023/03/31 07:36:16;;;;;;;11.32;4.00;;;11.20;99.90;;;;;;5026481;28;20069;-67
2023/03/31 07:38:43;;;;;;;9.95;4.00;;;11.20;99.90;;;;;;5006934;28;20041;-66
2023/03/31 07:41:13;;;;;;;15.00;4.30;;;11.30;99.90;;;;;;5015896;28;20503;-64
2023/03/31 07:43:39;;;;;;;10.90;4.30;;;11.30;99.90;;;;;;5008888;28;20049;-64
2023/03/31 07:46:07;;;;;;;10.80;4.18;;;11.30;99.90;;;;;;5012960;28;20041;-64
2023/03/31 07:48:33;;;;;;;13.40;3.80;;;11.30;99.90;;;;;;5002674;28;20045;-65
2023/03/31 07:50:58;;;;;;;8.90;4.05;;;11.30;99.90;;;;;;5012877;28;20050;-64
2023/03/31 07:53:24;;;;;;;9.75;3.90;;;11.30;99.90;;;;;;4996741;28;20026;-65
2023/03/31 07:55:49;;;;;;;8.45;3.67;;;11.30;99.90;;;;;;5023853;28;20446;-64
2023/03/31 07:58:15;;;;;;;12.80;3.72;;;11.30;99.90;;;;;;5026532;28;20037;-64
2023/03/31 08:00:41;;;;;;;11.68;3.90;;;11.30;99.90;;;;;;5021660;28;20037;-64
2023/03/31 08:03:06;;;;;;;14.27;4.60;;;11.20;99.90;;;;;;5020491;28;20499;-64
2023/03/31 08:05:32;;;;;;;9.95;3.83;;;11.20;99.90;;;;;;5003299;28;20486;-64
2023/03/31 08:07:57;;;;;;;12.82;3.42;;;11.20;99.90;;;;;;5029177;28;20081;-64
2023/03/31 08:10:25;;;;;;;7.70;3.30;;;11.30;99.90;;;;;;5018366;28;20068;-64
2023/03/31 08:12:51;;;;;;;8.25;3.42;;;11.30;99.90;;;;;;5025620;28;20120;-63
2023/03/31 08:15:17;;;;;;;8.85;3.60;;;11.30;99.90;;;;;;5028381;28;20068;-64
2023/03/31 08:17:43;;;;;;;9.57;3.55;;;11.40;99.90;;;;;;5021900;28;20045;-64
2023/03/31 08:20:10;;;;;;;9.15;3.53;;;11.40;99.90;;;;;;5031765;28;20034;-64
2023/03/31 08:22:37;;;;;;;8.57;3.38;;;11.40;99.90;;;;;;5022468;28;20045;-64
2023/03/31 08:25:04;;;;;;;10.77;3.60;;;11.40;99.90;;;;;;5022875;28;20038;-64
2023/03/31 08:27:37;;;;;;;9.90;3.40;;;11.40;99.90;;;;;;5017140;28;20073;-64
2023/03/31 08:30:05;;;;;;;8.82;3.33;;;11.40;99.90;;;;;;5030919;28;20116;-64
2023/03/31 08:32:32;;;;;;;9.55;3.45;;;11.40;99.90;;;;;;5023271;28;20109;-64
2023/03/31 08:34:58;;;;;;;10.25;3.25;;;11.40;99.90;;;;;;5008616;28;20049;-64
2023/03/31 08:37:23;;;;;;;8.80;3.45;;;11.50;99.90;;;;;;5011455;28;20033;-64
2023/03/31 08:39:49;;;;;;;9.60;3.13;;;11.50;99.90;;;;;;5027330;28;20042;-64
2023/03/31 08:42:27;;;;;;;8.13;3.13;;;11.50;99.90;;;;;;5023609;28;20037;-64
2023/03/31 08:45:00;;;;;;;7.10;3.00;;;11.50;99.90;;;;;;5016095;28;20034;-64
2023/03/31 08:47:29;;;;;;;7.97;3.25;;;11.60;99.90;;;;;;5021806;28;20484;-64
2023/03/31 08:49:59;;;;;;;9.30;3.22;;;11.60;99.90;;;;;;4995749;28;20042;-64
2023/03/31 08:53:09;;;;;;;7.82;3.25;;;11.50;99.90;;;;;;5028976;28;20510;-65
2023/03/31 08:55:52;;;;;;;8.00;3.08;;;11.60;99.90;;;;;;4977847;28;20060;-65
2023/03/31 08:58:26;;;;;;;6.90;3.20;;;11.50;99.90;;;;;;5004201;28;20088;-65
2023/03/31 09:01:18;;;;;;;8.90;2.88;;;11.30;99.90;;;;;;5008729;28;20041;-64
2023/03/31 09:04:01;;;;;;;;;;;11.20;99.90;;;;;;5025821;28;21020;-64
2023/03/31 09:06:48;;;;;;;7.75;3.00;;;11.20;99.90;;;;;;5021456;28;19921;-64
2023/03/31 09:09:31;;;;;;;7.88;3.20;;;11.30;99.90;;;;;;5026767;28;20492;-64
2023/03/31 09:12:04;;;;;;;15.32;3.65;;;11.30;99.90;;;;;;5025354;28;20041;-64
2023/03/31 09:14:38;;;;;;;8.18;2.88;;;11.40;99.90;;;;;;5030945;28;23583;-64
2023/03/31 09:17:31;;;;;;;8.00;3.00;;;11.40;99.90;;;;;;5022303;28;20217;-64
2023/03/31 09:20:00;;;;;;;7.25;2.72;;;11.20;99.90;;;;;;5025480;28;20100;-65
2023/03/31 09:22:37;;;;;;;6.10;3.00;;;11.20;99.90;;;;;;5034526;28;20044;-64
2023/03/31 09:25:05;;;;;;;9.40;3.13;;;11.20;99.90;;;;;;5024393;28;20029;-64
2023/03/31 09:27:35;;;;;;;8.40;3.08;;;11.10;99.90;;;;;;5022826;28;20042;-65
2023/03/31 09:30:28;;;;;;;10.50;3.88;;;11.30;99.90;;;;;;5023596;28;20492;-64
2023/03/31 09:33:21;;;;;;;9.15;3.20;;;11.40;99.90;;;;;;5017116;28;20037;-66
2023/03/31 09:35:47;;;;;;;5.95;2.88;;;11.50;99.90;;;;;;5027549;28;20038;-65
2023/03/31 09:38:15;;;;;;;8.75;3.03;;;11.50;99.90;;;;;;5021038;28;20446;-65
2023/03/31 09:40:41;;;;;;;5.07;2.83;;;11.60;99.90;;;;;;5023756;28;20712;-65
2023/03/31 09:43:25;;;;;;;8.73;2.83;;;11.70;99.90;;;;;;5020397;28;20122;-66
2023/03/31 09:45:52;;;;;;;6.90;2.80;;;11.70;99.90;;;;;;5028395;28;20038;-65
2023/03/31 09:48:21;;;;;;;6.75;2.72;;;11.80;99.90;;;;;;5036312;28;20551;-65
2023/03/31 09:51:15;;;;;;;8.57;2.70;;;11.80;99.90;;;;;;5017691;28;20060;-65
2023/03/31 09:53:52;;;;;;;6.25;2.40;;;11.70;99.90;;;;;;5026825;28;20125;-65
2023/03/31 09:56:40;;;;;;;7.07;2.63;;;11.70;99.90;;;;;;5021816;28;20038;-65
2023/03/31 09:59:15;;;;;;;4.55;2.10;;;11.70;99.90;;;;;;5006922;28;20068;-65
2023/03/31 10:01:41;;;;;;;5.05;2.10;;;11.60;99.90;;;;;;5009169;28;20043;-66
2023/03/31 10:04:19;;;;;;;5.47;2.00;;;11.60;99.90;;;;;;5024966;28;20064;-66
2023/03/31 10:06:46;;;;;;;5.25;2.00;;;11.60;99.90;;;;;;5028328;28;20038;-66
2023/03/31 10:09:12;;;;;;;5.05;1.77;;;11.70;99.90;;;;;;5015225;28;20412;-66
2023/03/31 10:11:38;;;;;;;4.93;1.65;;;11.80;99.90;;;;;;5028753;28;20065;-66
2023/03/31 10:14:12;;;;;;;4.97;1.98;;;11.90;99.90;;;;;;5024970;28;20037;-65
2023/03/31 10:17:01;;;;;;;6.40;2.35;;;12.00;99.90;;;;;;5028122;28;20064;-65
2023/03/31 10:19:30;;;;;;;4.80;1.90;;;12.10;99.90;;;;;;5030677;28;20033;-65
2023/03/31 10:22:22;;;;;;;6.35;2.13;;;12.30;99.90;;;;;;5010975;28;20045;-66
2023/03/31 10:24:49;;;;;;;4.07;2.10;;;12.60;99.90;;;;;;5007321;28;20069;-65
2023/03/31 10:27:31;;;;;;;4.43;1.90;;;12.60;99.90;;;;;;5003068;28;20492;-65
2023/03/31 10:30:02;;;;;;;4.95;2.15;;;12.70;99.90;;;;;;5021487;28;20045;-65
2023/03/31 10:32:34;;;;;;;5.82;2.13;;;12.70;99.90;;;;;;4989484;28;20096;-65
2023/03/31 10:35:15;;;;;;;5.28;2.10;;;12.50;99.90;;;;;;5020110;28;20133;-65
2023/03/31 10:37:40;;;;;;;5.50;2.10;;;12.50;99.90;;;;;;5026113;28;20462;-66
2023/03/31 10:40:22;;;;;;;4.07;2.10;;;12.40;99.90;;;;;;5028280;28;20034;-65
2023/03/31 10:43:06;;;;;;;6.78;2.28;;;12.40;99.90;;;;;;5034747;28;20076;-65
2023/03/31 10:45:48;;;;;;;5.47;2.50;;;12.30;99.90;;;;;;5028352;28;21194;-64
2023/03/31 10:48:38;;;;;;;4.90;2.45;;;12.20;99.90;;;;;;5026684;28;20030;-65
2023/03/31 10:51:16;;;;;;;4.50;2.60;;;12.30;99.90;;;;;;5014569;28;20042;-65
2023/03/31 10:53:48;;;;;;;6.22;2.80;;;12.50;99.90;;;;;;5038924;28;20068;-65
2023/03/31 10:56:18;;;;;;;;;;;12.60;99.90;;;;;;5012049;28;20418;-65
2023/03/31 10:59:09;;;;;;;6.57;2.40;;;12.80;99.90;;;;;;5027331;28;19917;-64
2023/03/31 11:02:19;;;;;;;6.43;2.70;;;13.00;99.90;;;;;;5021207;28;20509;-65
2023/03/31 11:05:04;;;;;;;7.57;2.67;;;13.10;99.90;;;;;;5007808;28;20042;-65
2023/03/31 11:07:52;;;;;;;5.95;2.95;;;13.30;99.90;;;;;;5029072;28;20399;-65
2023/03/31 11:10:35;;;;;;;6.40;2.45;;;13.50;99.90;;;;;;4997453;28;20045;-63
2023/03/31 11:13:06;;;;;;;6.63;2.55;;;13.70;99.90;;;;;;5014516;28;20037;-66
2023/03/31 11:15:53;;;;;;;5.07;2.45;;;13.90;99.90;;;;;;5027891;28;20048;-68
2023/03/31 11:19:00;;;;;;;6.45;2.40;;;13.90;99.90;;;;;;4991299;28;20049;-67
2023/03/31 11:21:57;;;;;;;5.72;2.40;;;14.00;99.90;;;;;;5026182;28;20200;-65
2023/03/31 11:24:47;;;;;;;5.50;2.50;;;13.90;99.90;;;;;;5028932;28;20085;-66
2023/03/31 11:27:15;;;;;;;5.80;2.55;;;13.80;99.90;;;;;;5024268;28;20380;-66
2023/03/31 11:29:55;;;;;;;12.18;2.90;;;13.60;99.90;;;;;;5025997;28;20124;-66
2023/03/31 11:32:40;;;;;;;6.45;3.00;;;13.60;99.90;;;;;;5033149;28;20045;-66
2023/03/31 11:35:06;;;;;;;7.50;2.80;;;13.60;99.90;;;;;;5018973;28;20095;-70
2023/03/31 11:37:41;;;;;;;7.40;2.70;;;13.50;99.90;;;;;;5004416;28;20041;-65
2023/03/31 11:40:28;;;;;;;8.27;2.97;;;13.60;99.90;;;;;;5004866;28;20050;-65
2023/03/31 11:42:59;;;;;;;7.80;3.05;;;13.40;99.90;;;;;;5018912;28;20045;-66
2023/03/31 11:45:30;;;;;;;8.98;3.13;;;13.50;99.90;;;;;;5021281;28;20030;-66
2023/03/31 11:48:04;;;;;;;9.73;3.35;;;13.40;99.90;;;;;;5024614;28;20038;-66
2023/03/31 11:50:37;;;;;;;11.88;3.70;;;13.40;99.90;;;;;;5013717;28;20171;-67
2023/03/31 11:53:10;;;;;;;6.57;2.83;;;13.40;99.90;;;;;;5013633;28;20034;-66
2023/03/31 11:55:37;;;;;;;10.90;3.40;;;13.40;99.90;;;;;;5019665;28;20033;-65
2023/03/31 11:58:07;;;;;;;8.55;3.10;;;13.40;99.90;;;;;;5021262;28;20048;-65
2023/03/31 12:00:40;;;;;;;11.80;3.70;;;13.40;99.90;;;;;;4996442;28;20099;-65
2023/03/31 12:03:19;;;;;;;8.90;3.58;;;13.40;99.90;;;;;;5016746;28;20377;-65
2023/03/31 12:05:56;;;;;;;8.25;3.50;;;13.30;99.90;;;;;;5024715;28;20067;-65
2023/03/31 12:08:34;;;;;;;7.95;3.63;;;13.30;99.90;;;;;;5033166;28;20153;-65
2023/03/31 12:11:22;;;;;;;10.20;3.90;;;13.30;99.90;;;;;;5022409;28;20264;-65
2023/03/31 12:14:06;;;;;;;10.27;4.20;;;13.40;99.90;;;;;;4999926;28;20133;-66
2023/03/31 12:16:44;;;;;;;12.27;3.92;;;13.70;99.90;;;;;;5012964;28;20491;-66
2023/03/31 12:19:16;;;;;;;8.55;3.97;;;13.90;99.90;;;;;;5026079;28;20440;-66
2023/03/31 12:21:49;;;;;;;11.80;3.97;;;14.20;99.90;;;;;;5024433;28;20072;-66
2023/03/31 12:24:15;;;;;;;11.30;4.70;;;14.60;99.90;;;;;;5032791;28;20061;-66
2023/03/31 12:27:00;;;;;;;14.27;4.57;;;14.80;99.90;;;;;;5012516;28;20030;-67
2023/03/31 12:29:32;;;;;;;14.80;4.43;;;14.90;99.90;;;;;;5017499;28;20076;-67
2023/03/31 12:32:03;;;;;;;16.50;4.30;;;14.90;99.90;;;;;;5024948;28;20120;-66
2023/03/31 12:34:30;;;;;;;14.32;4.13;;;15.00;99.90;;;;;;5024717;28;20116;-66
2023/03/31 12:37:28;;;;;;;14.23;4.03;;;14.80;99.90;;;;;;5016039;28;20034;-66
2023/03/31 12:40:15;;;;;;;12.52;3.50;;;14.50;99.90;;;;;;5023479;28;20120;-66
2023/03/31 12:43:05;;;;;;;10.13;3.33;;;14.40;99.90;;;;;;5014682;28;20033;-66
2023/03/31 12:45:39;;;;;;;10.70;3.17;;;14.10;99.90;;;;;;5017385;28;20120;-66
2023/03/31 12:48:11;;;;;;;14.02;3.67;;;14.00;99.90;;;;;;5016935;28;20042;-66
2023/03/31 12:50:59;;;;;;;11.30;3.10;;;13.90;99.90;;;;;;5024126;28;20038;-65
2023/03/31 12:53:57;;;;;;;9.65;3.00;;;13.80;99.90;;;;;;5023944;28;20696;-65
2023/03/31 12:56:23;;;;;;;10.80;3.05;;;13.80;99.90;;;;;;5024565;28;20049;-66
2023/03/31 12:58:49;;;;;;;10.40;2.97;;;13.80;99.90;;;;;;5025719;28;20045;-66
2023/03/31 13:01:19;;;;;;;15.02;4.03;;;13.80;99.90;;;;;;5018698;28;20483;-66
2023/03/31 13:04:16;;;;;;;15.05;3.20;;;13.80;99.90;;;;;;4996659;28;20045;-67
2023/03/31 13:06:41;;;;;;;12.00;3.00;;;13.90;99.90;;;;;;5021269;28;20056;-67
2023/03/31 13:09:13;;;;;;;11.10;3.30;;;13.80;99.90;;;;;;5020551;28;20042;-66